Terminal Aerodrome Forecast
Issued by NWS

Current Version | Previous Version | Graphics & Text | Print | Product List | Glossary On
Versions: 1 2 3 4 5 6 7 8 9 10 11 12 13 14 15 16 17 18 19
000
FTUS41 KPBZ 180528
TAFMGW
TAF
KMGW 180528Z 1806/1906 00000KT P6SM SCT100
     FM180800 00000KT 2SM BR SCT005
      TEMPO 1809/1812 1SM BR BKN005
     FM181300 00000KT P6SM SCT025
     FM181700 VRB03KT P6SM BKN045
     FM190000 VRB03KT P6SM SCT150=

USA.gov is the U.S. government's official web portal to all federal, state and local government web resources and services.